sensor_id;sensor_type;location;lat;lon;timestamp;P1;durP1;ratioP1;P2;durP2;ratioP2
12433;SDS011;6281;49.038;8.372;2023-04-03T00:00:31;1.70;;;1.47;;
12433;SDS011;6281;49.038;8.372;2023-04-03T00:02:58;2.00;;;1.50;;
12433;SDS011;6281;49.038;8.372;2023-04-03T00:05:25;2.97;;;1.80;;
12433;SDS011;6281;49.038;8.372;2023-04-03T00:07:52;1.70;;;1.40;;
12433;SDS011;6281;49.038;8.372;2023-04-03T00:10:19;1.80;;;1.20;;
12433;SDS011;6281;49.038;8.372;2023-04-03T00:12:47;2.63;;;1.53;;
12433;SDS011;6281;49.038;8.372;2023-04-03T00:15:14;2.97;;;2.00;;
12433;SDS011;6281;49.038;8.372;2023-04-03T00:17:49;2.03;;;1.50;;
12433;SDS011;6281;49.038;8.372;2023-04-03T00:20:16;1.93;;;1.43;;
12433;SDS011;6281;49.038;8.372;2023-04-03T00:22:43;2.53;;;1.30;;
12433;SDS011;6281;49.038;8.372;2023-04-03T00:25:10;1.40;;;1.30;;
12433;SDS011;6281;49.038;8.372;2023-04-03T00:27:38;2.67;;;1.73;;
12433;SDS011;6281;49.038;8.372;2023-04-03T00:30:08;2.10;;;1.30;;
12433;SDS011;6281;49.038;8.372;2023-04-03T00:32:38;2.87;;;1.50;;
12433;SDS011;6281;49.038;8.372;2023-04-03T00:35:05;3.13;;;1.50;;
12433;SDS011;6281;49.038;8.372;2023-04-03T00:37:33;2.83;;;1.60;;
12433;SDS011;6281;49.038;8.372;2023-04-03T00:40:00;1.60;;;1.50;;
12433;SDS011;6281;49.038;8.372;2023-04-03T00:42:27;2.17;;;1.70;;
12433;SDS011;6281;49.038;8.372;2023-04-03T00:47:53;1.90;;;1.33;;
12433;SDS011;6281;49.038;8.372;2023-04-03T00:50:21;1.97;;;1.50;;
12433;SDS011;6281;49.038;8.372;2023-04-03T00:52:49;1.57;;;1.40;;
12433;SDS011;6281;49.038;8.372;2023-04-03T00:55:16;3.77;;;1.50;;
12433;SDS011;6281;49.038;8.372;2023-04-03T00:57:44;4.53;;;1.50;;
12433;SDS011;6281;49.038;8.372;2023-04-03T01:00:13;3.27;;;1.53;;
12433;SDS011;6281;49.038;8.372;2023-04-03T01:02:44;1.50;;;1.30;;
12433;SDS011;6281;49.038;8.372;2023-04-03T01:05:11;4.23;;;1.60;;
12433;SDS011;6281;49.038;8.372;2023-04-03T01:07:39;3.63;;;1.40;;
12433;SDS011;6281;49.038;8.372;2023-04-03T01:10:07;2.50;;;1.47;;
12433;SDS011;6281;49.038;8.372;2023-04-03T01:12:39;2.87;;;1.73;;
12433;SDS011;6281;49.038;8.372;2023-04-03T01:15:09;1.97;;;1.20;;
12433;SDS011;6281;49.038;8.372;2023-04-03T01:17:38;3.03;;;1.80;;
12433;SDS011;6281;49.038;8.372;2023-04-03T01:23:32;2.63;;;1.60;;
12433;SDS011;6281;49.038;8.372;2023-04-03T01:26:08;1.53;;;1.30;;
12433;SDS011;6281;49.038;8.372;2023-04-03T01:28:36;4.67;;;1.53;;
12433;SDS011;6281;49.038;8.372;2023-04-03T01:31:06;1.70;;;1.33;;
12433;SDS011;6281;49.038;8.372;2023-04-03T01:33:41;2.53;;;1.50;;
12433;SDS011;6281;49.038;8.372;2023-04-03T01:36:09;1.83;;;1.47;;
12433;SDS011;6281;49.038;8.372;2023-04-03T01:38:41;1.50;;;1.40;;
12433;SDS011;6281;49.038;8.372;2023-04-03T01:41:08;2.47;;;1.60;;
12433;SDS011;6281;49.038;8.372;2023-04-03T01:43:35;2.80;;;1.43;;
12433;SDS011;6281;49.038;8.372;2023-04-03T01:46:02;2.50;;;1.60;;
12433;SDS011;6281;49.038;8.372;2023-04-03T01:48:29;3.00;;;1.67;;
12433;SDS011;6281;49.038;8.372;2023-04-03T01:50:57;2.70;;;1.50;;
12433;SDS011;6281;49.038;8.372;2023-04-03T01:53:24;4.80;;;1.80;;
12433;SDS011;6281;49.038;8.372;2023-04-03T01:55:51;2.93;;;1.73;;
12433;SDS011;6281;49.038;8.372;2023-04-03T01:58:17;2.23;;;1.67;;
12433;SDS011;6281;49.038;8.372;2023-04-03T02:00:44;3.63;;;2.00;;
12433;SDS011;6281;49.038;8.372;2023-04-03T02:03:11;1.90;;;1.40;;
12433;SDS011;6281;49.038;8.372;2023-04-03T02:05:38;3.10;;;1.93;;
12433;SDS011;6281;49.038;8.372;2023-04-03T02:08:07;3.33;;;2.00;;
12433;SDS011;6281;49.038;8.372;2023-04-03T02:10:34;2.00;;;1.60;;
12433;SDS011;6281;49.038;8.372;2023-04-03T02:13:01;3.60;;;2.10;;
12433;SDS011;6281;49.038;8.372;2023-04-03T02:15:27;5.23;;;1.87;;
12433;SDS011;6281;49.038;8.372;2023-04-03T02:17:54;2.57;;;1.70;;
12433;SDS011;6281;49.038;8.372;2023-04-03T02:20:21;2.30;;;1.53;;
12433;SDS011;6281;49.038;8.372;2023-04-03T02:22:48;1.50;;;1.40;;
12433;SDS011;6281;49.038;8.372;2023-04-03T02:25:17;3.80;;;2.27;;
12433;SDS011;6281;49.038;8.372;2023-04-03T02:27:44;3.83;;;1.63;;
12433;SDS011;6281;49.038;8.372;2023-04-03T02:30:11;2.70;;;1.87;;
12433;SDS011;6281;49.038;8.372;2023-04-03T02:32:39;1.97;;;1.53;;
12433;SDS011;6281;49.038;8.372;2023-04-03T02:35:07;2.23;;;1.80;;
12433;SDS011;6281;49.038;8.372;2023-04-03T02:37:34;1.50;;;1.40;;
12433;SDS011;6281;49.038;8.372;2023-04-03T02:40:01;5.13;;;1.80;;
12433;SDS011;6281;49.038;8.372;2023-04-03T02:42:30;1.60;;;1.50;;
12433;SDS011;6281;49.038;8.372;2023-04-03T02:44:56;4.47;;;2.27;;
12433;SDS011;6281;49.038;8.372;2023-04-03T02:47:25;2.10;;;1.90;;
12433;SDS011;6281;49.038;8.372;2023-04-03T02:49:52;3.70;;;1.90;;
12433;SDS011;6281;49.038;8.372;2023-04-03T02:52:19;3.13;;;1.67;;
12433;SDS011;6281;49.038;8.372;2023-04-03T02:54:46;1.90;;;1.70;;
12433;SDS011;6281;49.038;8.372;2023-04-03T02:57:13;3.17;;;1.93;;
12433;SDS011;6281;49.038;8.372;2023-04-03T02:59:41;2.43;;;1.83;;
12433;SDS011;6281;49.038;8.372;2023-04-03T03:02:09;2.30;;;1.67;;
12433;SDS011;6281;49.038;8.372;2023-04-03T03:04:36;1.87;;;1.70;;
12433;SDS011;6281;49.038;8.372;2023-04-03T03:07:03;3.53;;;1.97;;
12433;SDS011;6281;49.038;8.372;2023-04-03T03:09:30;3.33;;;1.63;;
12433;SDS011;6281;49.038;8.372;2023-04-03T03:11:57;3.03;;;1.80;;
12433;SDS011;6281;49.038;8.372;2023-04-03T03:14:25;4.10;;;2.00;;
12433;SDS011;6281;49.038;8.372;2023-04-03T03:16:53;3.53;;;1.80;;
12433;SDS011;6281;49.038;8.372;2023-04-03T03:19:20;2.60;;;1.97;;
12433;SDS011;6281;49.038;8.372;2023-04-03T03:21:47;2.30;;;1.70;;
12433;SDS011;6281;49.038;8.372;2023-04-03T03:24:14;2.20;;;1.67;;
12433;SDS011;6281;49.038;8.372;2023-04-03T03:26:42;3.83;;;1.70;;
12433;SDS011;6281;49.038;8.372;2023-04-03T03:29:09;3.17;;;1.83;;
12433;SDS011;6281;49.038;8.372;2023-04-03T03:31:36;3.90;;;1.97;;
12433;SDS011;6281;49.038;8.372;2023-04-03T03:34:04;4.57;;;2.00;;
12433;SDS011;6281;49.038;8.372;2023-04-03T03:36:31;2.03;;;1.70;;
12433;SDS011;6281;49.038;8.372;2023-04-03T03:38:58;2.77;;;1.50;;
12433;SDS011;6281;49.038;8.372;2023-04-03T03:41:25;3.50;;;1.80;;
12433;SDS011;6281;49.038;8.372;2023-04-03T03:43:52;2.07;;;1.63;;
12433;SDS011;6281;49.038;8.372;2023-04-03T03:46:19;1.73;;;1.53;;
12433;SDS011;6281;49.038;8.372;2023-04-03T03:48:45;1.93;;;1.40;;
12433;SDS011;6281;49.038;8.372;2023-04-03T03:51:14;2.30;;;1.70;;
12433;SDS011;6281;49.038;8.372;2023-04-03T03:53:41;3.07;;;1.90;;
12433;SDS011;6281;49.038;8.372;2023-04-03T03:56:08;2.03;;;1.70;;
12433;SDS011;6281;49.038;8.372;2023-04-03T03:58:35;2.00;;;1.67;;
12433;SDS011;6281;49.038;8.372;2023-04-03T04:01:02;2.43;;;1.90;;
12433;SDS011;6281;49.038;8.372;2023-04-03T04:03:30;4.07;;;2.03;;
12433;SDS011;6281;49.038;8.372;2023-04-03T04:05:57;2.70;;;1.73;;
12433;SDS011;6281;49.038;8.372;2023-04-03T04:08:26;2.13;;;1.70;;
12433;SDS011;6281;49.038;8.372;2023-04-03T04:10:52;2.27;;;1.70;;
12433;SDS011;6281;49.038;8.372;2023-04-03T04:13:19;3.03;;;2.07;;
12433;SDS011;6281;49.038;8.372;2023-04-03T04:15:46;3.90;;;1.70;;
12433;SDS011;6281;49.038;8.372;2023-04-03T04:18:13;4.67;;;1.83;;
12433;SDS011;6281;49.038;8.372;2023-04-03T04:20:40;1.90;;;1.77;;
12433;SDS011;6281;49.038;8.372;2023-04-03T04:23:07;2.83;;;1.73;;
12433;SDS011;6281;49.038;8.372;2023-04-03T04:25:36;2.57;;;1.70;;
12433;SDS011;6281;49.038;8.372;2023-04-03T04:28:03;2.53;;;1.90;;
12433;SDS011;6281;49.038;8.372;2023-04-03T04:30:30;2.33;;;1.63;;
12433;SDS011;6281;49.038;8.372;2023-04-03T04:32:57;2.67;;;1.67;;
12433;SDS011;6281;49.038;8.372;2023-04-03T04:35:23;5.23;;;1.97;;
12433;SDS011;6281;49.038;8.372;2023-04-03T04:37:50;3.33;;;2.00;;
12433;SDS011;6281;49.038;8.372;2023-04-03T04:40:17;2.77;;;1.90;;
12433;SDS011;6281;49.038;8.372;2023-04-03T04:42:46;2.53;;;2.03;;
12433;SDS011;6281;49.038;8.372;2023-04-03T04:45:13;2.87;;;1.70;;
12433;SDS011;6281;49.038;8.372;2023-04-03T04:47:40;3.30;;;1.90;;
12433;SDS011;6281;49.038;8.372;2023-04-03T04:50:08;3.43;;;1.70;;
12433;SDS011;6281;49.038;8.372;2023-04-03T04:52:36;3.60;;;1.93;;
12433;SDS011;6281;49.038;8.372;2023-04-03T04:55:03;3.13;;;1.50;;
12433;SDS011;6281;49.038;8.372;2023-04-03T04:57:31;2.93;;;1.93;;
12433;SDS011;6281;49.038;8.372;2023-04-03T04:59:59;2.87;;;1.67;;
12433;SDS011;6281;49.038;8.372;2023-04-03T05:02:26;2.73;;;1.90;;
12433;SDS011;6281;49.038;8.372;2023-04-03T05:04:53;2.03;;;1.43;;
12433;SDS011;6281;49.038;8.372;2023-04-03T05:07:20;3.00;;;1.73;;
12433;SDS011;6281;49.038;8.372;2023-04-03T05:09:47;2.80;;;2.07;;
12433;SDS011;6281;49.038;8.372;2023-04-03T05:12:14;1.97;;;1.60;;
12433;SDS011;6281;49.038;8.372;2023-04-03T05:14:41;2.90;;;1.93;;
12433;SDS011;6281;49.038;8.372;2023-04-03T05:17:09;4.40;;;1.83;;
12433;SDS011;6281;49.038;8.372;2023-04-03T05:19:36;3.03;;;1.60;;
12433;SDS011;6281;49.038;8.372;2023-04-03T05:22:03;3.03;;;1.73;;
12433;SDS011;6281;49.038;8.372;2023-04-03T05:24:30;3.17;;;1.70;;
12433;SDS011;6281;49.038;8.372;2023-04-03T05:26:57;3.23;;;1.87;;
12433;SDS011;6281;49.038;8.372;2023-04-03T05:29:23;2.27;;;1.63;;
12433;SDS011;6281;49.038;8.372;2023-04-03T05:31:50;1.60;;;1.40;;
12433;SDS011;6281;49.038;8.372;2023-04-03T05:34:19;4.07;;;1.90;;
12433;SDS011;6281;49.038;8.372;2023-04-03T05:36:46;1.70;;;1.60;;
12433;SDS011;6281;49.038;8.372;2023-04-03T05:39:13;2.70;;;1.60;;
12433;SDS011;6281;49.038;8.372;2023-04-03T05:41:40;2.07;;;1.70;;
12433;SDS011;6281;49.038;8.372;2023-04-03T05:44:07;2.93;;;1.80;;
12433;SDS011;6281;49.038;8.372;2023-04-03T05:46:34;1.87;;;1.40;;
12433;SDS011;6281;49.038;8.372;2023-04-03T05:49:01;2.30;;;1.60;;
12433;SDS011;6281;49.038;8.372;2023-04-03T05:51:30;1.67;;;1.57;;
12433;SDS011;6281;49.038;8.372;2023-04-03T05:54:00;2.90;;;1.50;;
12433;SDS011;6281;49.038;8.372;2023-04-03T05:56:32;1.80;;;1.50;;
12433;SDS011;6281;49.038;8.372;2023-04-03T05:58:59;2.07;;;1.73;;
12433;SDS011;6281;49.038;8.372;2023-04-03T06:01:26;2.37;;;1.60;;
12433;SDS011;6281;49.038;8.372;2023-04-03T06:03:53;2.43;;;1.50;;
12433;SDS011;6281;49.038;8.372;2023-04-03T06:06:20;1.83;;;1.70;;
12433;SDS011;6281;49.038;8.372;2023-04-03T06:08:49;3.17;;;1.70;;
12433;SDS011;6281;49.038;8.372;2023-04-03T06:11:16;2.33;;;1.53;;
12433;SDS011;6281;49.038;8.372;2023-04-03T06:13:43;3.30;;;1.90;;
12433;SDS011;6281;49.038;8.372;2023-04-03T06:16:11;2.40;;;1.77;;
12433;SDS011;6281;49.038;8.372;2023-04-03T06:18:40;6.50;;;1.70;;
12433;SDS011;6281;49.038;8.372;2023-04-03T06:21:07;2.57;;;1.80;;
12433;SDS011;6281;49.038;8.372;2023-04-03T06:23:34;2.70;;;1.63;;
12433;SDS011;6281;49.038;8.372;2023-04-03T06:26:03;2.40;;;1.87;;
12433;SDS011;6281;49.038;8.372;2023-04-03T06:28:30;4.53;;;1.93;;
12433;SDS011;6281;49.038;8.372;2023-04-03T06:30:57;2.93;;;1.90;;
12433;SDS011;6281;49.038;8.372;2023-04-03T06:33:24;2.17;;;1.83;;
12433;SDS011;6281;49.038;8.372;2023-04-03T06:35:55;2.03;;;1.53;;
12433;SDS011;6281;49.038;8.372;2023-04-03T06:38:22;3.77;;;1.63;;
12433;SDS011;6281;49.038;8.372;2023-04-03T06:40:49;2.00;;;1.50;;
12433;SDS011;6281;49.038;8.372;2023-04-03T06:43:18;2.10;;;1.90;;
12433;SDS011;6281;49.038;8.372;2023-04-03T06:45:45;2.20;;;1.80;;
12433;SDS011;6281;49.038;8.372;2023-04-03T06:48:12;2.93;;;1.50;;
12433;SDS011;6281;49.038;8.372;2023-04-03T06:50:39;2.53;;;1.60;;
12433;SDS011;6281;49.038;8.372;2023-04-03T06:53:06;3.57;;;1.77;;
12433;SDS011;6281;49.038;8.372;2023-04-03T06:55:33;3.20;;;1.90;;
12433;SDS011;6281;49.038;8.372;2023-04-03T06:57:59;2.53;;;1.90;;
12433;SDS011;6281;49.038;8.372;2023-04-03T07:00:28;2.10;;;1.90;;
12433;SDS011;6281;49.038;8.372;2023-04-03T07:02:55;4.87;;;2.40;;
12433;SDS011;6281;49.038;8.372;2023-04-03T07:05:22;2.97;;;1.90;;
12433;SDS011;6281;49.038;8.372;2023-04-03T07:07:49;2.30;;;2.00;;
12433;SDS011;6281;49.038;8.372;2023-04-03T07:10:16;2.47;;;2.00;;
12433;SDS011;6281;49.038;8.372;2023-04-03T07:12:43;3.20;;;1.90;;
12433;SDS011;6281;49.038;8.372;2023-04-03T07:15:11;5.83;;;2.33;;
12433;SDS011;6281;49.038;8.372;2023-04-03T07:17:40;4.10;;;1.97;;
12433;SDS011;6281;49.038;8.372;2023-04-03T07:20:07;2.53;;;1.67;;
12433;SDS011;6281;49.038;8.372;2023-04-03T07:22:35;3.43;;;1.90;;
12433;SDS011;6281;49.038;8.372;2023-04-03T07:25:02;4.73;;;2.33;;
12433;SDS011;6281;49.038;8.372;2023-04-03T07:27:32;5.40;;;2.20;;
12433;SDS011;6281;49.038;8.372;2023-04-03T07:29:59;2.60;;;1.83;;
12433;SDS011;6281;49.038;8.372;2023-04-03T07:32:26;4.43;;;2.07;;
12433;SDS011;6281;49.038;8.372;2023-04-03T07:34:54;4.80;;;2.43;;
12433;SDS011;6281;49.038;8.372;2023-04-03T07:37:20;4.17;;;2.40;;
12433;SDS011;6281;49.038;8.372;2023-04-03T07:39:47;2.73;;;2.30;;
12433;SDS011;6281;49.038;8.372;2023-04-03T07:42:14;3.83;;;2.30;;
12433;SDS011;6281;49.038;8.372;2023-04-03T07:44:41;5.77;;;2.60;;
12433;SDS011;6281;49.038;8.372;2023-04-03T07:47:08;3.53;;;2.43;;
12433;SDS011;6281;49.038;8.372;2023-04-03T07:49:35;3.00;;;2.30;;
12433;SDS011;6281;49.038;8.372;2023-04-03T07:52:06;3.77;;;2.80;;
12433;SDS011;6281;49.038;8.372;2023-04-03T07:54:34;2.77;;;2.20;;
12433;SDS011;6281;49.038;8.372;2023-04-03T07:57:01;3.37;;;2.30;;
12433;SDS011;6281;49.038;8.372;2023-04-03T07:59:29;4.60;;;2.40;;
12433;SDS011;6281;49.038;8.372;2023-04-03T08:01:55;4.17;;;2.50;;
12433;SDS011;6281;49.038;8.372;2023-04-03T08:04:22;3.00;;;2.50;;
12433;SDS011;6281;49.038;8.372;2023-04-03T08:06:50;4.13;;;2.50;;
12433;SDS011;6281;49.038;8.372;2023-04-03T08:09:18;6.17;;;2.73;;
12433;SDS011;6281;49.038;8.372;2023-04-03T08:11:45;4.33;;;2.17;;
12433;SDS011;6281;49.038;8.372;2023-04-03T08:14:12;4.30;;;2.63;;
12433;SDS011;6281;49.038;8.372;2023-04-03T08:16:41;4.03;;;2.83;;
12433;SDS011;6281;49.038;8.372;2023-04-03T08:19:09;4.23;;;2.53;;
12433;SDS011;6281;49.038;8.372;2023-04-03T08:21:36;4.23;;;2.30;;
12433;SDS011;6281;49.038;8.372;2023-04-03T08:24:03;3.13;;;2.70;;
12433;SDS011;6281;49.038;8.372;2023-04-03T08:26:32;3.93;;;2.57;;
12433;SDS011;6281;49.038;8.372;2023-04-03T08:28:59;3.10;;;2.37;;
12433;SDS011;6281;49.038;8.372;2023-04-03T08:31:26;4.83;;;2.60;;
12433;SDS011;6281;49.038;8.372;2023-04-03T08:33:53;4.20;;;2.60;;
12433;SDS011;6281;49.038;8.372;2023-04-03T08:36:21;4.03;;;2.03;;
12433;SDS011;6281;49.038;8.372;2023-04-03T08:38:49;3.40;;;2.30;;
12433;SDS011;6281;49.038;8.372;2023-04-03T08:41:20;5.00;;;2.77;;
12433;SDS011;6281;49.038;8.372;2023-04-03T08:44:04;3.47;;;2.50;;
12433;SDS011;6281;49.038;8.372;2023-04-03T08:46:51;2.77;;;2.10;;
12433;SDS011;6281;49.038;8.372;2023-04-03T08:49:39;3.17;;;2.07;;
12433;SDS011;6281;49.038;8.372;2023-04-03T08:52:13;4.17;;;2.10;;
12433;SDS011;6281;49.038;8.372;2023-04-03T08:54:48;5.07;;;2.00;;
12433;SDS011;6281;49.038;8.372;2023-04-03T08:57:17;4.93;;;1.90;;
12433;SDS011;6281;49.038;8.372;2023-04-03T08:59:52;3.50;;;1.90;;
12433;SDS011;6281;49.038;8.372;2023-04-03T09:02:24;6.47;;;2.43;;
12433;SDS011;6281;49.038;8.372;2023-04-03T09:04:55;2.60;;;1.80;;
12433;SDS011;6281;49.038;8.372;2023-04-03T09:07:23;3.43;;;2.20;;
12433;SDS011;6281;49.038;8.372;2023-04-03T09:10:00;3.70;;;2.03;;
12433;SDS011;6281;49.038;8.372;2023-04-03T09:12:32;2.53;;;1.90;;
12433;SDS011;6281;49.038;8.372;2023-04-03T09:15:05;2.43;;;1.90;;
12433;SDS011;6281;49.038;8.372;2023-04-03T09:17:59;3.63;;;1.63;;
12433;SDS011;6281;49.038;8.372;2023-04-03T09:20:33;4.40;;;1.70;;
12433;SDS011;6281;49.038;8.372;2023-04-03T09:23:12;3.07;;;1.73;;
12433;SDS011;6281;49.038;8.372;2023-04-03T09:25:45;3.33;;;1.67;;
12433;SDS011;6281;49.038;8.372;2023-04-03T09:28:12;3.13;;;1.63;;
12433;SDS011;6281;49.038;8.372;2023-04-03T09:30:41;5.57;;;1.70;;
12433;SDS011;6281;49.038;8.372;2023-04-03T09:33:07;2.17;;;1.90;;
12433;SDS011;6281;49.038;8.372;2023-04-03T09:35:36;2.80;;;1.40;;
12433;SDS011;6281;49.038;8.372;2023-04-03T09:38:14;2.57;;;1.63;;
12433;SDS011;6281;49.038;8.372;2023-04-03T09:40:43;2.07;;;1.60;;
12433;SDS011;6281;49.038;8.372;2023-04-03T09:43:28;2.80;;;1.30;;
12433;SDS011;6281;49.038;8.372;2023-04-03T09:48:49;2.40;;;1.70;;
12433;SDS011;6281;49.038;8.372;2023-04-03T09:51:17;1.83;;;1.20;;
12433;SDS011;6281;49.038;8.372;2023-04-03T09:53:44;3.60;;;1.57;;
12433;SDS011;6281;49.038;8.372;2023-04-03T09:56:18;3.90;;;1.40;;
12433;SDS011;6281;49.038;8.372;2023-04-03T09:58:48;2.73;;;1.50;;
12433;SDS011;6281;49.038;8.372;2023-04-03T10:01:25;3.10;;;1.60;;
12433;SDS011;6281;49.038;8.372;2023-04-03T10:04:03;4.03;;;1.47;;
12433;SDS011;6281;49.038;8.372;2023-04-03T10:06:32;1.67;;;1.27;;
12433;SDS011;6281;49.038;8.372;2023-04-03T10:09:02;3.03;;;1.17;;
12433;SDS011;6281;49.038;8.372;2023-04-03T10:11:30;3.43;;;1.37;;
12433;SDS011;6281;49.038;8.372;2023-04-03T10:13:57;2.50;;;1.57;;
12433;SDS011;6281;49.038;8.372;2023-04-03T10:16:28;1.57;;;1.00;;
12433;SDS011;6281;49.038;8.372;2023-04-03T10:19:22;1.77;;;1.13;;
12433;SDS011;6281;49.038;8.372;2023-04-03T10:21:59;3.33;;;1.17;;
12433;SDS011;6281;49.038;8.372;2023-04-03T10:24:31;4.37;;;1.30;;
12433;SDS011;6281;49.038;8.372;2023-04-03T10:27:03;1.37;;;1.10;;
12433;SDS011;6281;49.038;8.372;2023-04-03T10:29:39;2.67;;;1.30;;
12433;SDS011;6281;49.038;8.372;2023-04-03T10:32:15;3.00;;;1.20;;
12433;SDS011;6281;49.038;8.372;2023-04-03T10:34:52;1.97;;;1.30;;
12433;SDS011;6281;49.038;8.372;2023-04-03T10:37:25;1.70;;;1.20;;
12433;SDS011;6281;49.038;8.372;2023-04-03T10:40:02;1.60;;;0.97;;
12433;SDS011;6281;49.038;8.372;2023-04-03T10:42:37;1.80;;;0.90;;
12433;SDS011;6281;49.038;8.372;2023-04-03T10:45:17;2.30;;;1.30;;
12433;SDS011;6281;49.038;8.372;2023-04-03T10:47:51;4.27;;;1.67;;
12433;SDS011;6281;49.038;8.372;2023-04-03T10:50:30;3.07;;;1.00;;
12433;SDS011;6281;49.038;8.372;2023-04-03T10:53:05;1.87;;;1.20;;
12433;SDS011;6281;49.038;8.372;2023-04-03T10:55:41;3.07;;;1.30;;
12433;SDS011;6281;49.038;8.372;2023-04-03T10:58:16;2.03;;;1.43;;
12433;SDS011;6281;49.038;8.372;2023-04-03T11:00:51;2.60;;;0.97;;
12433;SDS011;6281;49.038;8.372;2023-04-03T11:03:27;1.93;;;1.20;;
12433;SDS011;6281;49.038;8.372;2023-04-03T11:05:57;2.43;;;1.00;;
12433;SDS011;6281;49.038;8.372;2023-04-03T11:08:29;3.33;;;1.30;;
12433;SDS011;6281;49.038;8.372;2023-04-03T11:11:02;1.13;;;0.93;;
12433;SDS011;6281;49.038;8.372;2023-04-03T11:13:33;2.23;;;1.27;;
12433;SDS011;6281;49.038;8.372;2023-04-03T11:16:05;1.20;;;0.90;;
12433;SDS011;6281;49.038;8.372;2023-04-03T11:18:35;4.10;;;1.17;;
12433;SDS011;6281;49.038;8.372;2023-04-03T11:21:07;1.70;;;0.87;;
12433;SDS011;6281;49.038;8.372;2023-04-03T11:23:39;1.63;;;1.00;;
12433;SDS011;6281;49.038;8.372;2023-04-03T11:26:08;2.03;;;1.13;;
12433;SDS011;6281;49.038;8.372;2023-04-03T11:28:36;2.10;;;1.20;;
12433;SDS011;6281;49.038;8.372;2023-04-03T11:31:07;2.23;;;1.20;;
12433;SDS011;6281;49.038;8.372;2023-04-03T11:33:43;2.23;;;1.27;;
12433;SDS011;6281;49.038;8.372;2023-04-03T11:36:18;1.30;;;0.90;;
12433;SDS011;6281;49.038;8.372;2023-04-03T11:38:49;1.40;;;1.10;;
12433;SDS011;6281;49.038;8.372;2023-04-03T11:41:23;3.27;;;1.20;;
12433;SDS011;6281;49.038;8.372;2023-04-03T11:43:56;1.73;;;1.27;;
12433;SDS011;6281;49.038;8.372;2023-04-03T11:46:48;1.90;;;1.17;;
12433;SDS011;6281;49.038;8.372;2023-04-03T11:58:27;2.63;;;0.90;;
12433;SDS011;6281;49.038;8.372;2023-04-03T12:04:09;1.73;;;1.20;;
12433;SDS011;6281;49.038;8.372;2023-04-03T12:06:48;2.27;;;1.20;;
12433;SDS011;6281;49.038;8.372;2023-04-03T12:12:44;1.70;;;1.10;;
12433;SDS011;6281;49.038;8.372;2023-04-03T12:24:25;1.77;;;1.20;;
12433;SDS011;6281;49.038;8.372;2023-04-03T12:27:01;1.10;;;1.00;;
12433;SDS011;6281;49.038;8.372;2023-04-03T12:29:42;2.70;;;1.27;;
12433;SDS011;6281;49.038;8.372;2023-04-03T12:32:19;2.00;;;1.13;;
12433;SDS011;6281;49.038;8.372;2023-04-03T12:35:05;2.17;;;1.40;;
12433;SDS011;6281;49.038;8.372;2023-04-03T12:40:42;3.30;;;1.37;;
12433;SDS011;6281;49.038;8.372;2023-04-03T12:43:22;1.80;;;1.27;;
12433;SDS011;6281;49.038;8.372;2023-04-03T12:45:59;1.87;;;1.13;;
12433;SDS011;6281;49.038;8.372;2023-04-03T12:48:31;3.90;;;1.37;;
12433;SDS011;6281;49.038;8.372;2023-04-03T12:51:03;2.13;;;1.30;;
12433;SDS011;6281;49.038;8.372;2023-04-03T12:53:32;1.50;;;1.10;;
12433;SDS011;6281;49.038;8.372;2023-04-03T12:56:21;2.40;;;1.40;;
12433;SDS011;6281;49.038;8.372;2023-04-03T12:58:50;1.33;;;1.23;;
12433;SDS011;6281;49.038;8.372;2023-04-03T13:01:21;3.40;;;1.40;;
12433;SDS011;6281;49.038;8.372;2023-04-03T13:03:50;2.30;;;1.20;;
12433;SDS011;6281;49.038;8.372;2023-04-03T13:06:21;2.30;;;1.43;;
12433;SDS011;6281;49.038;8.372;2023-04-03T13:08:49;2.97;;;1.67;;
12433;SDS011;6281;49.038;8.372;2023-04-03T13:11:18;1.90;;;1.53;;
12433;SDS011;6281;49.038;8.372;2023-04-03T13:13:56;4.60;;;1.20;;
12433;SDS011;6281;49.038;8.372;2023-04-03T13:16:26;2.30;;;1.70;;
12433;SDS011;6281;49.038;8.372;2023-04-03T13:18:54;5.07;;;1.70;;
12433;SDS011;6281;49.038;8.372;2023-04-03T13:21:22;2.07;;;1.30;;
12433;SDS011;6281;49.038;8.372;2023-04-03T13:23:52;2.67;;;1.70;;
12433;SDS011;6281;49.038;8.372;2023-04-03T13:26:22;2.20;;;1.13;;
12433;SDS011;6281;49.038;8.372;2023-04-03T13:28:52;2.47;;;1.40;;
12433;SDS011;6281;49.038;8.372;2023-04-03T13:31:22;3.17;;;1.60;;
12433;SDS011;6281;49.038;8.372;2023-04-03T13:33:55;1.73;;;1.20;;
12433;SDS011;6281;49.038;8.372;2023-04-03T13:36:24;5.43;;;1.70;;
12433;SDS011;6281;49.038;8.372;2023-04-03T13:38:58;2.50;;;1.50;;
12433;SDS011;6281;49.038;8.372;2023-04-03T13:41:26;5.00;;;1.33;;
12433;SDS011;6281;49.038;8.372;2023-04-03T13:43:56;2.47;;;1.30;;
12433;SDS011;6281;49.038;8.372;2023-04-03T13:46:42;2.37;;;1.47;;
12433;SDS011;6281;49.038;8.372;2023-04-03T13:49:17;2.40;;;1.30;;
12433;SDS011;6281;49.038;8.372;2023-04-03T13:51:45;3.53;;;1.67;;
12433;SDS011;6281;49.038;8.372;2023-04-03T13:54:15;2.50;;;1.40;;
12433;SDS011;6281;49.038;8.372;2023-04-03T13:56:47;3.97;;;1.60;;
12433;SDS011;6281;49.038;8.372;2023-04-03T13:59:21;1.93;;;1.40;;
12433;SDS011;6281;49.038;8.372;2023-04-03T14:01:53;2.47;;;1.47;;
12433;SDS011;6281;49.038;8.372;2023-04-03T14:04:22;4.97;;;1.40;;
12433;SDS011;6281;49.038;8.372;2023-04-03T14:06:50;2.63;;;1.40;;
12433;SDS011;6281;49.038;8.372;2023-04-03T14:09:19;2.03;;;1.53;;
12433;SDS011;6281;49.038;8.372;2023-04-03T14:11:47;3.40;;;1.40;;
12433;SDS011;6281;49.038;8.372;2023-04-03T14:14:16;2.57;;;1.57;;
12433;SDS011;6281;49.038;8.372;2023-04-03T14:16:46;4.27;;;1.60;;
12433;SDS011;6281;49.038;8.372;2023-04-03T14:19:19;2.07;;;1.50;;
12433;SDS011;6281;49.038;8.372;2023-04-03T14:21:47;3.93;;;1.60;;
12433;SDS011;6281;49.038;8.372;2023-04-03T14:24:15;2.00;;;1.47;;
12433;SDS011;6281;49.038;8.372;2023-04-03T14:26:43;1.97;;;1.43;;
12433;SDS011;6281;49.038;8.372;2023-04-03T14:29:10;3.97;;;1.80;;
12433;SDS011;6281;49.038;8.372;2023-04-03T14:31:37;4.63;;;1.70;;
12433;SDS011;6281;49.038;8.372;2023-04-03T14:34:05;3.33;;;1.70;;
12433;SDS011;6281;49.038;8.372;2023-04-03T14:36:33;2.57;;;1.50;;
12433;SDS011;6281;49.038;8.372;2023-04-03T14:39:01;2.30;;;1.50;;
12433;SDS011;6281;49.038;8.372;2023-04-03T14:41:28;2.37;;;1.53;;
12433;SDS011;6281;49.038;8.372;2023-04-03T14:43:55;1.70;;;1.30;;
12433;SDS011;6281;49.038;8.372;2023-04-03T14:46:24;2.10;;;1.30;;
12433;SDS011;6281;49.038;8.372;2023-04-03T14:48:54;3.60;;;1.57;;
12433;SDS011;6281;49.038;8.372;2023-04-03T14:51:21;3.00;;;1.43;;
12433;SDS011;6281;49.038;8.372;2023-04-03T14:53:49;2.77;;;1.47;;
12433;SDS011;6281;49.038;8.372;2023-04-03T14:56:17;1.43;;;1.27;;
12433;SDS011;6281;49.038;8.372;2023-04-03T14:58:46;1.47;;;1.37;;
12433;SDS011;6281;49.038;8.372;2023-04-03T15:01:15;1.47;;;1.20;;
12433;SDS011;6281;49.038;8.372;2023-04-03T15:03:42;1.60;;;1.27;;
12433;SDS011;6281;49.038;8.372;2023-04-03T15:06:10;2.43;;;1.50;;
12433;SDS011;6281;49.038;8.372;2023-04-03T15:08:38;2.10;;;1.40;;
12433;SDS011;6281;49.038;8.372;2023-04-03T15:11:07;2.20;;;1.30;;
12433;SDS011;6281;49.038;8.372;2023-04-03T15:13:35;1.83;;;1.13;;
12433;SDS011;6281;49.038;8.372;2023-04-03T15:16:02;2.93;;;2.23;;
12433;SDS011;6281;49.038;8.372;2023-04-03T15:18:31;3.53;;;1.70;;
12433;SDS011;6281;49.038;8.372;2023-04-03T15:21:03;2.50;;;1.30;;
12433;SDS011;6281;49.038;8.372;2023-04-03T15:23:30;2.43;;;1.33;;
12433;SDS011;6281;49.038;8.372;2023-04-03T15:25:57;2.60;;;1.30;;
12433;SDS011;6281;49.038;8.372;2023-04-03T15:28:27;4.83;;;1.47;;
12433;SDS011;6281;49.038;8.372;2023-04-03T15:30:57;1.40;;;1.07;;
12433;SDS011;6281;49.038;8.372;2023-04-03T15:33:24;3.07;;;1.40;;
12433;SDS011;6281;49.038;8.372;2023-04-03T15:35:51;2.13;;;1.43;;
12433;SDS011;6281;49.038;8.372;2023-04-03T15:38:17;2.27;;;1.40;;
12433;SDS011;6281;49.038;8.372;2023-04-03T15:40:44;3.60;;;1.40;;
12433;SDS011;6281;49.038;8.372;2023-04-03T15:43:12;2.83;;;1.40;;
12433;SDS011;6281;49.038;8.372;2023-04-03T15:45:41;4.43;;;1.53;;
12433;SDS011;6281;49.038;8.372;2023-04-03T15:48:09;1.60;;;1.27;;
12433;SDS011;6281;49.038;8.372;2023-04-03T15:50:36;1.53;;;1.27;;